sensor_id;sensor_type;location;lat;lon;timestamp;pressure;altitude;pressure_sealevel;temperature;humidity
31331;BME280;34067;39.548;-76.088;2023-10-19T00:00:12;101996.18;;;15.43;43.90
31331;BME280;34067;39.548;-76.088;2023-10-19T00:02:40;101997.67;;;15.43;43.72
31331;BME280;34067;39.548;-76.088;2023-10-19T00:05:08;101998.24;;;15.95;43.78
31331;BME280;34067;39.548;-76.088;2023-10-19T00:07:36;101999.72;;;15.37;43.46
31331;BME280;34067;39.548;-76.088;2023-10-19T00:10:05;102000.54;;;15.87;43.67
31331;BME280;34067;39.548;-76.088;2023-10-19T00:12:33;102006.94;;;15.71;43.04
31331;BME280;34067;39.548;-76.088;2023-10-19T00:15:01;102011.87;;;15.57;42.94
31331;BME280;34067;39.548;-76.088;2023-10-19T00:17:29;102015.03;;;15.47;42.99
31331;BME280;34067;39.548;-76.088;2023-10-19T00:19:57;102014.91;;;16.14;42.47
31331;BME280;34067;39.548;-76.088;2023-10-19T00:22:25;102017.06;;;15.92;42.12
31331;BME280;34067;39.548;-76.088;2023-10-19T00:24:53;102019.96;;;16.10;42.01
31331;BME280;34067;39.548;-76.088;2023-10-19T00:27:21;102027.87;;;16.04;41.99
31331;BME280;34067;39.548;-76.088;2023-10-19T00:29:49;102030.97;;;16.34;41.81
31331;BME280;34067;39.548;-76.088;2023-10-19T00:32:17;102030.07;;;15.88;42.56
31331;BME280;34067;39.548;-76.088;2023-10-19T00:34:45;102034.88;;;15.90;42.23
31331;BME280;34067;39.548;-76.088;2023-10-19T00:37:13;102039.18;;;15.74;42.03
31331;BME280;34067;39.548;-76.088;2023-10-19T00:39:41;102035.30;;;16.43;42.06
31331;BME280;34067;39.548;-76.088;2023-10-19T00:42:09;102036.28;;;15.98;42.14
31331;BME280;34067;39.548;-76.088;2023-10-19T00:44:37;102038.71;;;15.73;42.17
31331;BME280;34067;39.548;-76.088;2023-10-19T00:47:05;102036.56;;;15.26;42.35
31331;BME280;34067;39.548;-76.088;2023-10-19T00:49:33;102033.18;;;16.13;41.81
31331;BME280;34067;39.548;-76.088;2023-10-19T00:52:01;102031.63;;;16.20;41.48
31331;BME280;34067;39.548;-76.088;2023-10-19T00:54:33;102029.82;;;15.58;41.28
31331;BME280;34067;39.548;-76.088;2023-10-19T00:57:02;102028.91;;;15.08;42.94
31331;BME280;34067;39.548;-76.088;2023-10-19T00:59:30;102031.92;;;15.62;45.21
31331;BME280;34067;39.548;-76.088;2023-10-19T01:01:58;102031.00;;;15.06;48.56
31331;BME280;34067;39.548;-76.088;2023-10-19T01:04:26;102033.07;;;14.78;50.00
31331;BME280;34067;39.548;-76.088;2023-10-19T01:06:55;102035.19;;;14.80;50.93
31331;BME280;34067;39.548;-76.088;2023-10-19T01:09:23;102035.75;;;14.55;51.31
31331;BME280;34067;39.548;-76.088;2023-10-19T01:11:51;102035.70;;;14.34;51.48
31331;BME280;34067;39.548;-76.088;2023-10-19T01:14:20;102039.51;;;14.41;51.53
31331;BME280;34067;39.548;-76.088;2023-10-19T01:16:48;102044.70;;;14.71;51.13
31331;BME280;34067;39.548;-76.088;2023-10-19T01:19:16;102044.96;;;14.78;50.33
31331;BME280;34067;39.548;-76.088;2023-10-19T01:21:44;102047.38;;;14.38;51.63
31331;BME280;34067;39.548;-76.088;2023-10-19T01:24:12;102049.44;;;14.05;51.92
31331;BME280;34067;39.548;-76.088;2023-10-19T01:26:40;102054.35;;;13.63;52.36
31331;BME280;34067;39.548;-76.088;2023-10-19T01:29:08;102054.09;;;14.40;52.68
31331;BME280;34067;39.548;-76.088;2023-10-19T01:31:36;102052.73;;;14.07;53.21
31331;BME280;34067;39.548;-76.088;2023-10-19T01:34:05;102049.67;;;13.95;52.77
31331;BME280;34067;39.548;-76.088;2023-10-19T01:36:33;102056.14;;;14.03;55.46
31331;BME280;34067;39.548;-76.088;2023-10-19T01:39:01;102058.10;;;13.91;54.76
31331;BME280;34067;39.548;-76.088;2023-10-19T01:41:29;102063.39;;;13.43;56.55
31331;BME280;34067;39.548;-76.088;2023-10-19T01:43:57;102064.65;;;14.17;56.21
31331;BME280;34067;39.548;-76.088;2023-10-19T01:46:25;102065.78;;;13.36;57.54
31331;BME280;34067;39.548;-76.088;2023-10-19T01:48:54;102066.50;;;13.27;57.57
31331;BME280;34067;39.548;-76.088;2023-10-19T01:51:22;102068.52;;;12.98;56.45
31331;BME280;34067;39.548;-76.088;2023-10-19T01:53:51;102067.20;;;12.84;56.61
31331;BME280;34067;39.548;-76.088;2023-10-19T01:56:20;102070.07;;;12.03;61.78
31331;BME280;34067;39.548;-76.088;2023-10-19T01:58:49;102069.21;;;12.24;59.76
31331;BME280;34067;39.548;-76.088;2023-10-19T02:01:17;102071.98;;;11.86;59.85
31331;BME280;34067;39.548;-76.088;2023-10-19T02:03:45;102073.25;;;12.40;57.93
31331;BME280;34067;39.548;-76.088;2023-10-19T02:06:14;102077.47;;;12.50;56.29
31331;BME280;34067;39.548;-76.088;2023-10-19T02:08:44;102073.66;;;12.56;56.25
31331;BME280;34067;39.548;-76.088;2023-10-19T02:11:13;102070.88;;;12.34;56.98
31331;BME280;34067;39.548;-76.088;2023-10-19T02:13:41;102070.09;;;12.93;56.84
31331;BME280;34067;39.548;-76.088;2023-10-19T02:16:09;102073.20;;;12.82;57.79
31331;BME280;34067;39.548;-76.088;2023-10-19T02:18:37;102076.44;;;11.82;60.77
31331;BME280;34067;39.548;-76.088;2023-10-19T02:21:05;102071.47;;;13.08;59.44
31331;BME280;34067;39.548;-76.088;2023-10-19T02:23:33;102071.90;;;12.89;60.27
31331;BME280;34067;39.548;-76.088;2023-10-19T02:26:02;102073.13;;;11.67;65.37
31331;BME280;34067;39.548;-76.088;2023-10-19T02:28:30;102071.80;;;11.60;66.32
31331;BME280;34067;39.548;-76.088;2023-10-19T02:30:58;102072.66;;;12.52;66.51
31331;BME280;34067;39.548;-76.088;2023-10-19T02:33:26;102078.34;;;12.40;66.64
31331;BME280;34067;39.548;-76.088;2023-10-19T02:35:54;102076.80;;;12.90;64.52
31331;BME280;34067;39.548;-76.088;2023-10-19T02:38:23;102074.54;;;11.91;65.73
31331;BME280;34067;39.548;-76.088;2023-10-19T02:40:51;102074.47;;;12.93;66.37
31331;BME280;34067;39.548;-76.088;2023-10-19T02:43:18;102078.85;;;12.08;65.47
31331;BME280;34067;39.548;-76.088;2023-10-19T02:45:47;102082.92;;;11.51;66.75
31331;BME280;34067;39.548;-76.088;2023-10-19T02:48:15;102078.17;;;11.89;64.76
31331;BME280;34067;39.548;-76.088;2023-10-19T02:50:43;102079.09;;;11.09;66.71
31331;BME280;34067;39.548;-76.088;2023-10-19T02:53:11;102079.56;;;10.82;66.82
31331;BME280;34067;39.548;-76.088;2023-10-19T02:55:39;102076.30;;;11.56;67.92
31331;BME280;34067;39.548;-76.088;2023-10-19T02:58:07;102073.54;;;11.79;69.07
31331;BME280;34067;39.548;-76.088;2023-10-19T03:00:37;102072.44;;;11.32;70.45
31331;BME280;34067;39.548;-76.088;2023-10-19T03:03:06;102069.78;;;10.99;72.06
31331;BME280;34067;39.548;-76.088;2023-10-19T03:05:34;102069.23;;;10.99;73.59
31331;BME280;34067;39.548;-76.088;2023-10-19T03:08:02;102072.29;;;11.61;70.68
31331;BME280;34067;39.548;-76.088;2023-10-19T03:10:30;102076.86;;;11.55;71.19
31331;BME280;34067;39.548;-76.088;2023-10-19T03:12:58;102076.66;;;11.55;69.11
31331;BME280;34067;39.548;-76.088;2023-10-19T03:15:26;102078.67;;;11.44;68.85
31331;BME280;34067;39.548;-76.088;2023-10-19T03:17:55;102077.14;;;12.88;66.77
31331;BME280;34067;39.548;-76.088;2023-10-19T03:20:23;102072.46;;;12.75;63.34
31331;BME280;34067;39.548;-76.088;2023-10-19T03:22:51;102075.96;;;12.83;61.65
31331;BME280;34067;39.548;-76.088;2023-10-19T03:25:19;102077.50;;;12.88;60.50
31331;BME280;34067;39.548;-76.088;2023-10-19T03:27:46;102082.38;;;12.76;61.06
31331;BME280;34067;39.548;-76.088;2023-10-19T03:30:15;102081.20;;;12.51;60.66
31331;BME280;34067;39.548;-76.088;2023-10-19T03:32:43;102083.17;;;12.90;58.80
31331;BME280;34067;39.548;-76.088;2023-10-19T03:35:11;102080.49;;;13.49;56.79
31331;BME280;34067;39.548;-76.088;2023-10-19T03:37:39;102075.42;;;12.51;59.57
31331;BME280;34067;39.548;-76.088;2023-10-19T03:40:08;102074.87;;;12.27;60.63
31331;BME280;34067;39.548;-76.088;2023-10-19T03:42:36;102071.03;;;12.71;61.79
31331;BME280;34067;39.548;-76.088;2023-10-19T03:45:05;102072.47;;;12.57;65.13
31331;BME280;34067;39.548;-76.088;2023-10-19T03:47:33;102070.16;;;12.44;65.46
31331;BME280;34067;39.548;-76.088;2023-10-19T03:50:02;102074.68;;;11.29;68.66
31331;BME280;34067;39.548;-76.088;2023-10-19T03:52:30;102077.06;;;10.34;77.47
31331;BME280;34067;39.548;-76.088;2023-10-19T03:54:58;102072.56;;;10.05;76.57
31331;BME280;34067;39.548;-76.088;2023-10-19T03:57:26;102075.07;;;10.78;78.38
31331;BME280;34067;39.548;-76.088;2023-10-19T03:59:54;102080.00;;;10.68;78.83
31331;BME280;34067;39.548;-76.088;2023-10-19T04:02:22;102081.55;;;10.26;79.79
31331;BME280;34067;39.548;-76.088;2023-10-19T04:04:50;102082.85;;;10.07;80.57
31331;BME280;34067;39.548;-76.088;2023-10-19T04:07:18;102086.78;;;9.21;85.68
31331;BME280;34067;39.548;-76.088;2023-10-19T04:09:46;102081.25;;;10.42;84.05
31331;BME280;34067;39.548;-76.088;2023-10-19T04:12:14;102083.93;;;9.45;85.25
31331;BME280;34067;39.548;-76.088;2023-10-19T04:14:42;102080.18;;;10.27;84.04
31331;BME280;34067;39.548;-76.088;2023-10-19T04:17:10;102075.94;;;10.02;85.06
31331;BME280;34067;39.548;-76.088;2023-10-19T04:19:38;102074.33;;;10.74;83.14
31331;BME280;34067;39.548;-76.088;2023-10-19T04:22:06;102077.83;;;10.54;83.14
31331;BME280;34067;39.548;-76.088;2023-10-19T04:24:33;102075.56;;;10.59;82.28
31331;BME280;34067;39.548;-76.088;2023-10-19T04:27:02;102073.40;;;10.69;82.08
31331;BME280;34067;39.548;-76.088;2023-10-19T04:29:30;102082.25;;;9.51;87.95
31331;BME280;34067;39.548;-76.088;2023-10-19T04:31:59;102085.21;;;9.29;85.25
31331;BME280;34067;39.548;-76.088;2023-10-19T04:34:27;102089.12;;;8.61;94.00
31331;BME280;34067;39.548;-76.088;2023-10-19T04:36:55;102092.61;;;8.60;90.82
31331;BME280;34067;39.548;-76.088;2023-10-19T04:39:23;102087.25;;;9.11;91.53
31331;BME280;34067;39.548;-76.088;2023-10-19T04:41:51;102087.86;;;9.14;92.33
31331;BME280;34067;39.548;-76.088;2023-10-19T04:44:19;102089.71;;;8.47;93.25
31331;BME280;34067;39.548;-76.088;2023-10-19T04:46:47;102090.40;;;8.94;92.72
31331;BME280;34067;39.548;-76.088;2023-10-19T04:49:15;102094.26;;;9.25;92.79
31331;BME280;34067;39.548;-76.088;2023-10-19T04:51:43;102097.20;;;8.57;89.90
31331;BME280;34067;39.548;-76.088;2023-10-19T04:54:11;102095.03;;;8.91;91.52
31331;BME280;34067;39.548;-76.088;2023-10-19T04:56:39;102094.91;;;8.95;94.21
31331;BME280;34067;39.548;-76.088;2023-10-19T04:59:07;102090.72;;;8.52;91.84
31331;BME280;34067;39.548;-76.088;2023-10-19T05:03:10;102094.14;;;8.75;89.76
31331;BME280;34067;39.548;-76.088;2023-10-19T05:05:38;102090.22;;;9.15;88.83
31331;BME280;34067;39.548;-76.088;2023-10-19T05:08:07;102085.24;;;8.59;91.23
31331;BME280;34067;39.548;-76.088;2023-10-19T05:10:35;102085.28;;;8.56;88.07
31331;BME280;34067;39.548;-76.088;2023-10-19T05:13:03;102083.48;;;8.89;87.63
31331;BME280;34067;39.548;-76.088;2023-10-19T05:15:31;102078.09;;;9.20;87.30
31331;BME280;34067;39.548;-76.088;2023-10-19T05:17:59;102078.83;;;9.20;88.02
31331;BME280;34067;39.548;-76.088;2023-10-19T05:20:27;102080.29;;;9.09;86.88
31331;BME280;34067;39.548;-76.088;2023-10-19T05:22:55;102083.28;;;8.09;89.21
31331;BME280;34067;39.548;-76.088;2023-10-19T05:25:23;102084.78;;;9.39;88.63
31331;BME280;34067;39.548;-76.088;2023-10-19T05:27:52;102083.53;;;9.50;88.70
31331;BME280;34067;39.548;-76.088;2023-10-19T05:30:19;102079.11;;;8.22;93.28
31331;BME280;34067;39.548;-76.088;2023-10-19T05:32:47;102085.27;;;8.96;89.57
31331;BME280;34067;39.548;-76.088;2023-10-19T05:35:15;102084.35;;;8.51;90.56
31331;BME280;34067;39.548;-76.088;2023-10-19T05:37:43;102079.99;;;9.42;90.25
31331;BME280;34067;39.548;-76.088;2023-10-19T05:40:12;102075.41;;;9.56;88.05
31331;BME280;34067;39.548;-76.088;2023-10-19T05:42:39;102074.92;;;7.70;93.81
31331;BME280;34067;39.548;-76.088;2023-10-19T05:45:08;102076.98;;;9.40;92.24
31331;BME280;34067;39.548;-76.088;2023-10-19T05:47:36;102077.07;;;8.94;91.40
31331;BME280;34067;39.548;-76.088;2023-10-19T05:50:04;102080.16;;;9.14;92.92
31331;BME280;34067;39.548;-76.088;2023-10-19T05:52:32;102080.48;;;8.62;89.63
31331;BME280;34067;39.548;-76.088;2023-10-19T05:55:00;102076.77;;;8.79;88.66
31331;BME280;34067;39.548;-76.088;2023-10-19T05:57:28;102076.35;;;9.60;87.28
31331;BME280;34067;39.548;-76.088;2023-10-19T05:59:56;102073.81;;;9.19;87.97
31331;BME280;34067;39.548;-76.088;2023-10-19T06:02:24;102076.86;;;8.44;92.61
31331;BME280;34067;39.548;-76.088;2023-10-19T06:04:52;102078.43;;;8.90;90.64
31331;BME280;34067;39.548;-76.088;2023-10-19T06:07:20;102077.63;;;7.86;93.04
31331;BME280;34067;39.548;-76.088;2023-10-19T06:09:48;102079.48;;;8.91;90.78
31331;BME280;34067;39.548;-76.088;2023-10-19T06:12:16;102081.10;;;9.75;86.59
31331;BME280;34067;39.548;-76.088;2023-10-19T06:14:44;102081.36;;;8.78;85.12
31331;BME280;34067;39.548;-76.088;2023-10-19T06:17:12;102084.71;;;9.79;81.73
31331;BME280;34067;39.548;-76.088;2023-10-19T06:19:40;102081.12;;;9.69;79.95
31331;BME280;34067;39.548;-76.088;2023-10-19T06:22:08;102082.63;;;10.08;79.57
31331;BME280;34067;39.548;-76.088;2023-10-19T06:24:36;102082.48;;;9.88;79.49
31331;BME280;34067;39.548;-76.088;2023-10-19T06:27:04;102088.50;;;10.24;78.61
31331;BME280;34067;39.548;-76.088;2023-10-19T06:29:32;102088.73;;;9.26;80.63
31331;BME280;34067;39.548;-76.088;2023-10-19T06:32:00;102089.79;;;9.34;80.26
31331;BME280;34067;39.548;-76.088;2023-10-19T06:34:28;102093.12;;;9.64;81.07
31331;BME280;34067;39.548;-76.088;2023-10-19T06:36:56;102095.90;;;10.05;77.53
31331;BME280;34067;39.548;-76.088;2023-10-19T06:39:24;102092.87;;;9.74;75.89
31331;BME280;34067;39.548;-76.088;2023-10-19T06:41:52;102089.96;;;9.07;78.50
31331;BME280;34067;39.548;-76.088;2023-10-19T06:44:20;102088.27;;;8.79;77.50
31331;BME280;34067;39.548;-76.088;2023-10-19T06:46:47;102092.88;;;9.45;75.47
31331;BME280;34067;39.548;-76.088;2023-10-19T06:49:16;102093.42;;;10.41;71.91
31331;BME280;34067;39.548;-76.088;2023-10-19T06:51:44;102097.62;;;9.22;70.88
31331;BME280;34067;39.548;-76.088;2023-10-19T06:54:12;102097.87;;;8.81;71.92
31331;BME280;34067;39.548;-76.088;2023-10-19T06:56:40;102099.48;;;9.19;73.34
31331;BME280;34067;39.548;-76.088;2023-10-19T06:59:08;102097.21;;;9.19;72.75
31331;BME280;34067;39.548;-76.088;2023-10-19T07:01:36;102096.69;;;9.38;71.81
31331;BME280;34067;39.548;-76.088;2023-10-19T07:04:04;102097.00;;;9.19;71.94
31331;BME280;34067;39.548;-76.088;2023-10-19T07:06:32;102095.91;;;9.26;70.84
31331;BME280;34067;39.548;-76.088;2023-10-19T07:08:59;102093.33;;;9.37;69.58
31331;BME280;34067;39.548;-76.088;2023-10-19T07:11:28;102091.35;;;9.30;70.44
31331;BME280;34067;39.548;-76.088;2023-10-19T07:13:56;102081.22;;;10.39;68.65
31331;BME280;34067;39.548;-76.088;2023-10-19T07:16:23;102079.04;;;10.43;67.67
31331;BME280;34067;39.548;-76.088;2023-10-19T07:18:51;102081.63;;;9.78;67.11
31331;BME280;34067;39.548;-76.088;2023-10-19T07:21:19;102081.34;;;9.61;68.04
31331;BME280;34067;39.548;-76.088;2023-10-19T07:23:47;102080.19;;;10.18;66.47
31331;BME280;34067;39.548;-76.088;2023-10-19T07:26:15;102081.35;;;10.28;65.22
31331;BME280;34067;39.548;-76.088;2023-10-19T07:28:44;102078.80;;;10.34;65.90
31331;BME280;34067;39.548;-76.088;2023-10-19T07:31:11;102079.91;;;10.04;67.39
31331;BME280;34067;39.548;-76.088;2023-10-19T07:33:39;102075.15;;;10.42;66.24
31331;BME280;34067;39.548;-76.088;2023-10-19T07:36:12;102074.85;;;10.77;65.08
31331;BME280;34067;39.548;-76.088;2023-10-19T07:38:40;102075.90;;;10.95;64.64
31331;BME280;34067;39.548;-76.088;2023-10-19T07:41:08;102069.38;;;10.05;64.99
31331;BME280;34067;39.548;-76.088;2023-10-19T07:43:36;102065.21;;;10.85;65.96
31331;BME280;34067;39.548;-76.088;2023-10-19T07:46:05;102062.78;;;10.39;66.71
31331;BME280;34067;39.548;-76.088;2023-10-19T07:48:33;102060.92;;;10.39;68.87
31331;BME280;34067;39.548;-76.088;2023-10-19T07:51:01;102061.53;;;10.29;67.89
31331;BME280;34067;39.548;-76.088;2023-10-19T07:53:29;102062.34;;;10.20;68.33
31331;BME280;34067;39.548;-76.088;2023-10-19T07:55:57;102060.62;;;10.97;68.47
31331;BME280;34067;39.548;-76.088;2023-10-19T07:58:25;102060.89;;;9.92;72.94
31331;BME280;34067;39.548;-76.088;2023-10-19T08:00:53;102055.53;;;10.20;71.86
31331;BME280;34067;39.548;-76.088;2023-10-19T08:03:21;102060.06;;;10.81;70.32
31331;BME280;34067;39.548;-76.088;2023-10-19T08:05:49;102059.96;;;10.40;72.95
31331;BME280;34067;39.548;-76.088;2023-10-19T08:08:17;102057.30;;;9.97;71.10
31331;BME280;34067;39.548;-76.088;2023-10-19T08:10:45;102059.88;;;9.94;73.33
31331;BME280;34067;39.548;-76.088;2023-10-19T08:13:13;102060.05;;;9.68;73.12
31331;BME280;34067;39.548;-76.088;2023-10-19T08:15:41;102058.53;;;10.32;71.91
31331;BME280;34067;39.548;-76.088;2023-10-19T08:18:09;102059.04;;;10.35;72.21
31331;BME280;34067;39.548;-76.088;2023-10-19T08:20:37;102062.58;;;9.59;73.10
31331;BME280;34067;39.548;-76.088;2023-10-19T08:23:05;102065.34;;;9.97;73.33
31331;BME280;34067;39.548;-76.088;2023-10-19T08:25:33;102064.11;;;9.72;74.37
31331;BME280;34067;39.548;-76.088;2023-10-19T08:28:01;102067.42;;;9.25;78.29
31331;BME280;34067;39.548;-76.088;2023-10-19T08:30:29;102065.99;;;9.60;79.28
31331;BME280;34067;39.548;-76.088;2023-10-19T08:32:57;102068.41;;;8.99;81.54
31331;BME280;34067;39.548;-76.088;2023-10-19T08:35:24;102065.82;;;9.37;80.85
31331;BME280;34067;39.548;-76.088;2023-10-19T08:37:52;102060.92;;;9.65;80.55
31331;BME280;34067;39.548;-76.088;2023-10-19T08:40:21;102058.76;;;8.91;81.41
31331;BME280;34067;39.548;-76.088;2023-10-19T08:42:48;102058.28;;;9.31;80.35
31331;BME280;34067;39.548;-76.088;2023-10-19T08:45:17;102064.17;;;9.67;80.86
31331;BME280;34067;39.548;-76.088;2023-10-19T08:47:54;102061.45;;;9.37;80.98
31331;BME280;34067;39.548;-76.088;2023-10-19T08:50:24;102061.52;;;9.37;78.50
31331;BME280;34067;39.548;-76.088;2023-10-19T08:52:54;102062.76;;;10.04;78.28
31331;BME280;34067;39.548;-76.088;2023-10-19T08:55:22;102065.46;;;9.63;78.05
31331;BME280;34067;39.548;-76.088;2023-10-19T08:57:52;102068.63;;;9.52;78.11
31331;BME280;34067;39.548;-76.088;2023-10-19T09:00:20;102071.34;;;10.08;76.41
31331;BME280;34067;39.548;-76.088;2023-10-19T09:02:48;102074.33;;;9.83;77.48
31331;BME280;34067;39.548;-76.088;2023-10-19T09:05:16;102073.77;;;10.14;76.20
31331;BME280;34067;39.548;-76.088;2023-10-19T09:07:44;102075.64;;;9.74;76.55
31331;BME280;34067;39.548;-76.088;2023-10-19T09:10:16;102077.08;;;10.14;75.20
31331;BME280;34067;39.548;-76.088;2023-10-19T09:12:44;102077.95;;;10.20;74.40
31331;BME280;34067;39.548;-76.088;2023-10-19T09:15:21;102074.30;;;9.91;73.72
31331;BME280;34067;39.548;-76.088;2023-10-19T09:17:49;102075.51;;;10.56;73.44
31331;BME280;34067;39.548;-76.088;2023-10-19T09:20:17;102078.89;;;10.80;72.79
31331;BME280;34067;39.548;-76.088;2023-10-19T09:22:45;102082.89;;;10.87;70.85
31331;BME280;34067;39.548;-76.088;2023-10-19T09:25:13;102083.52;;;10.58;71.92
31331;BME280;34067;39.548;-76.088;2023-10-19T09:27:41;102081.67;;;11.02;69.35
31331;BME280;34067;39.548;-76.088;2023-10-19T09:30:10;102086.22;;;10.66;68.66
31331;BME280;34067;39.548;-76.088;2023-10-19T09:32:40;102084.26;;;11.00;68.90
31331;BME280;34067;39.548;-76.088;2023-10-19T09:35:09;102084.77;;;10.53;69.51
31331;BME280;34067;39.548;-76.088;2023-10-19T09:37:38;102087.09;;;10.49;70.17
31331;BME280;34067;39.548;-76.088;2023-10-19T09:40:07;102090.90;;;10.74;69.43
31331;BME280;34067;39.548;-76.088;2023-10-19T09:42:35;102092.21;;;11.07;69.32
31331;BME280;34067;39.548;-76.088;2023-10-19T09:45:05;102089.16;;;10.67;69.88
31331;BME280;34067;39.548;-76.088;2023-10-19T09:47:38;102094.42;;;9.89;72.18
31331;BME280;34067;39.548;-76.088;2023-10-19T09:50:07;102098.99;;;9.96;73.21
31331;BME280;34067;39.548;-76.088;2023-10-19T09:52:36;102095.65;;;10.67;74.63
31331;BME280;34067;39.548;-76.088;2023-10-19T09:55:08;102094.02;;;10.06;73.52
31331;BME280;34067;39.548;-76.088;2023-10-19T09:57:44;102095.75;;;9.69;74.98
31331;BME280;34067;39.548;-76.088;2023-10-19T10:00:15;102096.59;;;9.55;78.74
31331;BME280;34067;39.548;-76.088;2023-10-19T10:02:43;102095.34;;;9.30;79.06
31331;BME280;34067;39.548;-76.088;2023-10-19T10:06:26;102095.26;;;9.58;77.53
31331;BME280;34067;39.548;-76.088;2023-10-19T10:08:54;102095.13;;;9.21;79.15
31331;BME280;34067;39.548;-76.088;2023-10-19T10:11:24;102097.06;;;8.57;83.07
31331;BME280;34067;39.548;-76.088;2023-10-19T10:13:55;102095.78;;;9.60;82.26
31331;BME280;34067;39.548;-76.088;2023-10-19T10:16:25;102096.89;;;9.28;81.77
31331;BME280;34067;39.548;-76.088;2023-10-19T10:18:56;102097.84;;;8.52;83.01
31331;BME280;34067;39.548;-76.088;2023-10-19T10:21:25;102097.86;;;9.14;81.47
31331;BME280;34067;39.548;-76.088;2023-10-19T10:23:55;102097.15;;;9.13;82.46
31331;BME280;34067;39.548;-76.088;2023-10-19T10:26:26;102096.94;;;9.30;82.34
31331;BME280;34067;39.548;-76.088;2023-10-19T10:29:26;102095.98;;;9.20;82.31
31331;BME280;34067;39.548;-76.088;2023-10-19T10:31:54;102097.84;;;8.94;81.61
31331;BME280;34067;39.548;-76.088;2023-10-19T10:34:54;102101.34;;;8.67;83.27
31331;BME280;34067;39.548;-76.088;2023-10-19T10:37:22;102098.20;;;9.36;80.50
31331;BME280;34067;39.548;-76.088;2023-10-19T10:39:50;102096.13;;;9.24;80.65
31331;BME280;34067;39.548;-76.088;2023-10-19T10:42:26;102093.50;;;8.38;83.96
31331;BME280;34067;39.548;-76.088;2023-10-19T10:44:54;102089.88;;;6.76;92.28
31331;BME280;34067;39.548;-76.088;2023-10-19T10:47:23;102091.84;;;8.08;91.83
31331;BME280;34067;39.548;-76.088;2023-10-19T10:49:52;102091.13;;;7.53;95.05
31331;BME280;34067;39.548;-76.088;2023-10-19T10:52:25;102091.93;;;7.81;96.41
31331;BME280;34067;39.548;-76.088;2023-10-19T10:54:53;102093.14;;;7.60;97.22
31331;BME280;34067;39.548;-76.088;2023-10-19T10:57:21;102091.70;;;8.87;93.47
31331;BME280;34067;39.548;-76.088;2023-10-19T11:00:01;102091.83;;;6.92;95.40
31331;BME280;34067;39.548;-76.088;2023-10-19T11:02:30;102085.58;;;8.49;95.38
31331;BME280;34067;39.548;-76.088;2023-10-19T11:04:58;102087.71;;;8.28;97.83
31331;BME280;34067;39.548;-76.088;2023-10-19T11:07:26;102084.12;;;8.25;96.68
31331;BME280;34067;39.548;-76.088;2023-10-19T11:09:54;102088.62;;;7.77;98.54
31331;BME280;34067;39.548;-76.088;2023-10-19T11:12:22;102086.68;;;8.14;97.22
31331;BME280;34067;39.548;-76.088;2023-10-19T11:14:54;102084.56;;;7.69;99.19
31331;BME280;34067;39.548;-76.088;2023-10-19T11:17:23;102081.91;;;8.36;97.29
31331;BME280;34067;39.548;-76.088;2023-10-19T11:19:51;102077.17;;;7.81;97.45
31331;BME280;34067;39.548;-76.088;2023-10-19T11:22:19;102074.27;;;8.49;97.40
31331;BME280;34067;39.548;-76.088;2023-10-19T11:24:47;102076.19;;;8.74;93.99
31331;BME280;34067;39.548;-76.088;2023-10-19T11:27:23;102077.29;;;8.34;93.92
31331;BME280;34067;39.548;-76.088;2023-10-19T11:29:55;102073.91;;;8.35;96.16
31331;BME280;34067;39.548;-76.088;2023-10-19T11:32:23;102075.90;;;8.21;96.05
31331;BME280;34067;39.548;-76.088;2023-10-19T11:34:51;102073.65;;;7.61;97.01
31331;BME280;34067;39.548;-76.088;2023-10-19T11:37:19;102073.90;;;8.44;95.16
31331;BME280;34067;39.548;-76.088;2023-10-19T11:39:47;102074.28;;;9.06;93.76
31331;BME280;34067;39.548;-76.088;2023-10-19T11:42:15;102078.57;;;7.74;96.46
31331;BME280;34067;39.548;-76.088;2023-10-19T11:44:42;102076.78;;;8.82;94.99
31331;BME280;34067;39.548;-76.088;2023-10-19T11:47:10;102075.08;;;7.88;96.16
31331;BME280;34067;39.548;-76.088;2023-10-19T11:49:38;102072.46;;;8.22;95.04
31331;BME280;34067;39.548;-76.088;2023-10-19T11:52:06;102070.96;;;8.68;92.43
31331;BME280;34067;39.548;-76.088;2023-10-19T11:54:34;102073.68;;;8.73;92.72
31331;BME280;34067;39.548;-76.088;2023-10-19T11:57:03;102070.82;;;9.27;90.74
31331;BME280;34067;39.548;-76.088;2023-10-19T11:59:31;102073.23;;;9.50;88.98
31331;BME280;34067;39.548;-76.088;2023-10-19T12:01:59;102068.30;;;9.23;87.86
31331;BME280;34067;39.548;-76.088;2023-10-19T12:04:27;102069.48;;;9.36;88.23
31331;BME280;34067;39.548;-76.088;2023-10-19T12:06:55;102067.21;;;9.50;88.85
31331;BME280;34067;39.548;-76.088;2023-10-19T12:09:23;102065.30;;;9.78;86.91
31331;BME280;34067;39.548;-76.088;2023-10-19T12:11:51;102066.24;;;9.76;88.01
31331;BME280;34067;39.548;-76.088;2023-10-19T12:14:19;102066.20;;;10.11;86.28
31331;BME280;34067;39.548;-76.088;2023-10-19T12:16:47;102065.18;;;9.52;85.59
31331;BME280;34067;39.548;-76.088;2023-10-19T12:19:16;102061.03;;;10.40;86.00
31331;BME280;34067;39.548;-76.088;2023-10-19T12:21:44;102057.17;;;10.28;84.42
31331;BME280;34067;39.548;-76.088;2023-10-19T12:24:12;102055.18;;;10.60;82.46
31331;BME280;34067;39.548;-76.088;2023-10-19T12:26:39;102055.21;;;10.52;83.32
31331;BME280;34067;39.548;-76.088;2023-10-19T12:29:07;102056.98;;;10.08;82.71
31331;BME280;34067;39.548;-76.088;2023-10-19T12:31:35;102056.41;;;10.06;85.02
31331;BME280;34067;39.548;-76.088;2023-10-19T12:34:02;102053.80;;;10.32;84.04
31331;BME280;34067;39.548;-76.088;2023-10-19T12:36:32;102053.54;;;11.22;83.82
31331;BME280;34067;39.548;-76.088;2023-10-19T12:39:01;102055.92;;;11.74;80.12
31331;BME280;34067;39.548;-76.088;2023-10-19T12:41:28;102057.23;;;12.02;74.61
31331;BME280;34067;39.548;-76.088;2023-10-19T12:43:56;102058.25;;;12.47;75.37